sensor_id;sensor_type;location;lat;lon;timestamp;pressure;altitude;pressure_sealevel;temperature;humidity
72370;BME280;60343;-32.030;115.880;2023-02-15T00:01:47;101143.94;;;23.31;59.79
72370;BME280;60343;-32.030;115.880;2023-02-15T00:04:28;101149.13;;;23.16;61.00
72370;BME280;60343;-32.030;115.880;2023-02-15T00:07:13;101147.47;;;23.15;60.77
72370;BME280;60343;-32.030;115.880;2023-02-15T00:09:49;101151.72;;;23.22;61.49
72370;BME280;60343;-32.030;115.880;2023-02-15T00:12:25;101158.59;;;23.41;60.80
72370;BME280;60343;-32.030;115.880;2023-02-15T00:15:00;101160.78;;;23.56;59.68
72370;BME280;60343;-32.030;115.880;2023-02-15T00:17:44;101141.88;;;23.55;58.60
72370;BME280;60343;-32.030;115.880;2023-02-15T00:20:26;101134.78;;;23.54;58.66
72370;BME280;60343;-32.030;115.880;2023-02-15T00:23:01;101152.88;;;23.43;58.77
72370;BME280;60343;-32.030;115.880;2023-02-15T00:25:37;101158.19;;;23.33;59.48
72370;BME280;60343;-32.030;115.880;2023-02-15T00:28:12;101164.13;;;23.30;58.86
72370;BME280;60343;-32.030;115.880;2023-02-15T00:30:47;101176.97;;;23.29;59.21
72370;BME280;60343;-32.030;115.880;2023-02-15T00:33:25;101158.19;;;23.33;59.69
72370;BME280;60343;-32.030;115.880;2023-02-15T00:36:07;101162.56;;;23.34;60.13
72370;BME280;60343;-32.030;115.880;2023-02-15T00:38:43;101173.06;;;23.25;59.45
72370;BME280;60343;-32.030;115.880;2023-02-15T00:41:18;101188.91;;;23.23;59.44
72370;BME280;60343;-32.030;115.880;2023-02-15T00:43:54;101184.75;;;23.21;60.49
72370;BME280;60343;-32.030;115.880;2023-02-15T00:46:29;101195.34;;;23.17;59.88
72370;BME280;60343;-32.030;115.880;2023-02-15T00:49:06;101200.03;;;23.05;60.49
72370;BME280;60343;-32.030;115.880;2023-02-15T00:51:47;101198.34;;;23.04;60.43
72370;BME280;60343;-32.030;115.880;2023-02-15T00:54:22;101195.06;;;23.02;61.07
72370;BME280;60343;-32.030;115.880;2023-02-15T00:56:58;101197.25;;;23.17;60.61
72370;BME280;60343;-32.030;115.880;2023-02-15T00:59:34;101205.63;;;23.27;59.33
72370;BME280;60343;-32.030;115.880;2023-02-15T01:02:12;101201.06;;;23.32;59.17
72370;BME280;60343;-32.030;115.880;2023-02-15T01:04:47;101209.81;;;23.46;58.16
72370;BME280;60343;-32.030;115.880;2023-02-15T01:07:28;101205.78;;;23.37;58.75
72370;BME280;60343;-32.030;115.880;2023-02-15T01:10:04;101203.06;;;23.37;58.77
72370;BME280;60343;-32.030;115.880;2023-02-15T01:12:40;101201.47;;;23.41;58.88
72370;BME280;60343;-32.030;115.880;2023-02-15T01:15:15;101208.19;;;23.33;59.74
72370;BME280;60343;-32.030;115.880;2023-02-15T01:17:51;101211.34;;;23.42;59.16
72370;BME280;60343;-32.030;115.880;2023-02-15T01:20:28;101202.28;;;23.53;58.85
72370;BME280;60343;-32.030;115.880;2023-02-15T01:23:10;101199.94;;;23.62;58.15
72370;BME280;60343;-32.030;115.880;2023-02-15T01:25:46;101209.22;;;23.61;58.07
72370;BME280;60343;-32.030;115.880;2023-02-15T01:28:21;101208.72;;;23.47;58.36
72370;BME280;60343;-32.030;115.880;2023-02-15T01:30:57;101215.16;;;23.41;59.09
72370;BME280;60343;-32.030;115.880;2023-02-15T01:33:33;101207.28;;;23.44;59.22
72370;BME280;60343;-32.030;115.880;2023-02-15T01:36:08;101220.75;;;23.63;58.17
72370;BME280;60343;-32.030;115.880;2023-02-15T01:38:51;101226.53;;;23.83;57.76
72370;BME280;60343;-32.030;115.880;2023-02-15T01:41:26;101226.16;;;24.13;56.49
72370;BME280;60343;-32.030;115.880;2023-02-15T01:44:03;101219.16;;;24.60;55.38
72370;BME280;60343;-32.030;115.880;2023-02-15T01:46:42;101212.78;;;24.76;54.09
72370;BME280;60343;-32.030;115.880;2023-02-15T01:49:25;101188.59;;;24.68;54.71
72370;BME280;60343;-32.030;115.880;2023-02-15T01:52:02;101197.19;;;24.55;54.11
72370;BME280;60343;-32.030;115.880;2023-02-15T01:54:46;101212.41;;;24.46;54.75
72370;BME280;60343;-32.030;115.880;2023-02-15T01:57:23;101219.09;;;24.55;54.74
72370;BME280;60343;-32.030;115.880;2023-02-15T02:00:04;101217.38;;;24.71;54.51
72370;BME280;60343;-32.030;115.880;2023-02-15T02:02:41;101187.25;;;24.71;54.26
72370;BME280;60343;-32.030;115.880;2023-02-15T02:05:18;101205.75;;;24.86;54.12
72370;BME280;60343;-32.030;115.880;2023-02-15T02:07:54;101215.25;;;24.95;53.69
72370;BME280;60343;-32.030;115.880;2023-02-15T02:10:37;101224.16;;;25.12;52.80
72370;BME280;60343;-32.030;115.880;2023-02-15T02:13:13;101214.47;;;25.31;53.34
72370;BME280;60343;-32.030;115.880;2023-02-15T02:15:52;101208.22;;;25.36;52.17
72370;BME280;60343;-32.030;115.880;2023-02-15T02:18:39;101217.50;;;25.03;52.53
72370;BME280;60343;-32.030;115.880;2023-02-15T02:24:32;101183.69;;;25.19;52.37
72370;BME280;60343;-32.030;115.880;2023-02-15T02:27:33;101201.84;;;25.57;50.31
72370;BME280;60343;-32.030;115.880;2023-02-15T02:30:23;101207.63;;;25.60;50.50
72370;BME280;60343;-32.030;115.880;2023-02-15T02:33:30;101206.78;;;25.92;50.34
72370;BME280;60343;-32.030;115.880;2023-02-15T02:36:15;101202.78;;;26.10;50.03
72370;BME280;60343;-32.030;115.880;2023-02-15T02:39:09;101196.78;;;26.18;48.91
72370;BME280;60343;-32.030;115.880;2023-02-15T02:41:54;101204.00;;;26.29;48.28
72370;BME280;60343;-32.030;115.880;2023-02-15T02:44:38;101197.00;;;26.11;48.07
72370;BME280;60343;-32.030;115.880;2023-02-15T02:47:23;101198.38;;;26.09;48.50
72370;BME280;60343;-32.030;115.880;2023-02-15T02:50:09;101190.19;;;26.14;49.54
72370;BME280;60343;-32.030;115.880;2023-02-15T02:52:47;101189.56;;;26.48;47.47
72370;BME280;60343;-32.030;115.880;2023-02-15T02:55:26;101187.50;;;26.91;47.64
72370;BME280;60343;-32.030;115.880;2023-02-15T02:58:15;101182.34;;;27.20;46.50
72370;BME280;60343;-32.030;115.880;2023-02-15T03:00:55;101184.28;;;27.35;46.38
72370;BME280;60343;-32.030;115.880;2023-02-15T03:03:47;101179.31;;;27.37;46.54
72370;BME280;60343;-32.030;115.880;2023-02-15T03:06:52;101182.63;;;27.28;47.36
72370;BME280;60343;-32.030;115.880;2023-02-15T03:09:31;101187.00;;;27.09;47.24
72370;BME280;60343;-32.030;115.880;2023-02-15T03:12:10;101187.25;;;26.93;47.89
72370;BME280;60343;-32.030;115.880;2023-02-15T03:14:50;101186.06;;;26.78;48.92
72370;BME280;60343;-32.030;115.880;2023-02-15T03:17:29;101179.69;;;26.53;48.41
72370;BME280;60343;-32.030;115.880;2023-02-15T03:20:09;101181.50;;;26.32;48.51
72370;BME280;60343;-32.030;115.880;2023-02-15T03:22:57;101166.56;;;26.13;48.83
72370;BME280;60343;-32.030;115.880;2023-02-15T03:25:36;101160.78;;;26.09;49.55
72370;BME280;60343;-32.030;115.880;2023-02-15T03:28:19;101144.06;;;26.16;49.49
72370;BME280;60343;-32.030;115.880;2023-02-15T03:31:00;101155.41;;;26.24;49.57
72370;BME280;60343;-32.030;115.880;2023-02-15T03:33:39;101164.81;;;26.43;48.25
72370;BME280;60343;-32.030;115.880;2023-02-15T03:36:21;101170.09;;;26.55;47.69
72370;BME280;60343;-32.030;115.880;2023-02-15T03:39:09;101180.81;;;26.62;48.32
72370;BME280;60343;-32.030;115.880;2023-02-15T03:41:49;101186.88;;;26.74;48.38
72370;BME280;60343;-32.030;115.880;2023-02-15T03:44:32;101177.75;;;26.53;48.15
72370;BME280;60343;-32.030;115.880;2023-02-15T03:47:13;101182.41;;;26.47;49.60
72370;BME280;60343;-32.030;115.880;2023-02-15T03:49:57;101178.09;;;26.72;47.21
72370;BME280;60343;-32.030;115.880;2023-02-15T03:52:55;101157.84;;;26.98;45.82
72370;BME280;60343;-32.030;115.880;2023-02-15T03:55:37;101148.53;;;27.19;44.78
72370;BME280;60343;-32.030;115.880;2023-02-15T03:58:14;101140.53;;;27.48;44.74
72370;BME280;60343;-32.030;115.880;2023-02-15T04:01:02;101150.47;;;27.64;44.81
72370;BME280;60343;-32.030;115.880;2023-02-15T04:04:03;101148.53;;;27.70;44.58
72370;BME280;60343;-32.030;115.880;2023-02-15T04:06:42;101139.69;;;27.83;44.08
72370;BME280;60343;-32.030;115.880;2023-02-15T04:09:18;101137.78;;;27.79;45.24
72370;BME280;60343;-32.030;115.880;2023-02-15T04:12:07;101138.88;;;27.67;44.90
72370;BME280;60343;-32.030;115.880;2023-02-15T04:14:43;101138.34;;;27.65;44.43
72370;BME280;60343;-32.030;115.880;2023-02-15T04:17:27;101135.03;;;27.48;43.99
72370;BME280;60343;-32.030;115.880;2023-02-15T04:20:02;101133.94;;;27.44;44.77
72370;BME280;60343;-32.030;115.880;2023-02-15T04:22:46;101147.69;;;27.29;45.10
72370;BME280;60343;-32.030;115.880;2023-02-15T04:25:29;101137.53;;;27.24;46.80
72370;BME280;60343;-32.030;115.880;2023-02-15T04:28:11;101134.78;;;27.24;46.68
72370;BME280;60343;-32.030;115.880;2023-02-15T04:30:50;101138.63;;;27.23;45.90
72370;BME280;60343;-32.030;115.880;2023-02-15T04:33:25;101136.69;;;27.19;46.27
72370;BME280;60343;-32.030;115.880;2023-02-15T04:36:04;101127.63;;;27.08;45.96
72370;BME280;60343;-32.030;115.880;2023-02-15T04:38:40;101129.78;;;26.91;46.73
72370;BME280;60343;-32.030;115.880;2023-02-15T04:41:15;101128.69;;;26.87;47.16
72370;BME280;60343;-32.030;115.880;2023-02-15T04:43:57;101124.06;;;27.13;45.16
72370;BME280;60343;-32.030;115.880;2023-02-15T04:46:34;101135.31;;;27.21;46.87
72370;BME280;60343;-32.030;115.880;2023-02-15T04:49:10;101134.78;;;27.19;47.64
72370;BME280;60343;-32.030;115.880;2023-02-15T04:51:49;101128.44;;;27.34;46.53
72370;BME280;60343;-32.030;115.880;2023-02-15T04:54:24;101122.38;;;27.72;45.42
72370;BME280;60343;-32.030;115.880;2023-02-15T04:57:00;101129.78;;;27.77;44.85
72370;BME280;60343;-32.030;115.880;2023-02-15T04:59:41;101143.28;;;27.68;45.32
72370;BME280;60343;-32.030;115.880;2023-02-15T05:02:17;101132.00;;;27.75;44.96
72370;BME280;60343;-32.030;115.880;2023-02-15T05:04:52;101119.38;;;27.49;44.70
72370;BME280;60343;-32.030;115.880;2023-02-15T05:07:28;101130.09;;;27.30;46.10
72370;BME280;60343;-32.030;115.880;2023-02-15T05:10:04;101128.72;;;27.17;46.06
72370;BME280;60343;-32.030;115.880;2023-02-15T05:12:41;101129.28;;;27.19;46.02
72370;BME280;60343;-32.030;115.880;2023-02-15T05:15:22;101122.13;;;27.08;47.40
72370;BME280;60343;-32.030;115.880;2023-02-15T05:18:01;101122.69;;;27.25;46.66
72370;BME280;60343;-32.030;115.880;2023-02-15T05:20:36;101112.78;;;27.09;46.67
72370;BME280;60343;-32.030;115.880;2023-02-15T05:23:12;101105.06;;;27.37;47.08
72370;BME280;60343;-32.030;115.880;2023-02-15T05:25:51;101100.66;;;27.66;45.64
72370;BME280;60343;-32.030;115.880;2023-02-15T05:28:34;101112.13;;;27.93;46.50
72370;BME280;60343;-32.030;115.880;2023-02-15T05:31:19;101106.56;;;28.08;45.02
72370;BME280;60343;-32.030;115.880;2023-02-15T05:33:59;101105.47;;;28.09;44.60
72370;BME280;60343;-32.030;115.880;2023-02-15T05:36:35;101104.34;;;28.70;44.42
72370;BME280;60343;-32.030;115.880;2023-02-15T05:39:11;101097.56;;;28.52;44.40
72370;BME280;60343;-32.030;115.880;2023-02-15T05:41:47;101093.00;;;28.81;43.62
72370;BME280;60343;-32.030;115.880;2023-02-15T05:44:23;101090.44;;;29.24;43.27
72370;BME280;60343;-32.030;115.880;2023-02-15T05:47:05;101083.22;;;29.62;42.65
72370;BME280;60343;-32.030;115.880;2023-02-15T05:49:46;101078.03;;;29.79;42.27
72370;BME280;60343;-32.030;115.880;2023-02-15T05:52:21;101092.22;;;30.39;39.87
72370;BME280;60343;-32.030;115.880;2023-02-15T05:54:58;101085.22;;;30.84;39.03
72370;BME280;60343;-32.030;115.880;2023-02-15T05:57:34;101083.41;;;31.12;38.27
72370;BME280;60343;-32.030;115.880;2023-02-15T06:00:11;101070.31;;;31.17;37.52
72370;BME280;60343;-32.030;115.880;2023-02-15T06:02:52;101075.50;;;31.05;37.81
72370;BME280;60343;-32.030;115.880;2023-02-15T06:05:27;101072.72;;;31.05;38.00
72370;BME280;60343;-32.030;115.880;2023-02-15T06:08:03;101068.78;;;31.25;36.64
72370;BME280;60343;-32.030;115.880;2023-02-15T06:10:40;101076.25;;;31.57;37.31
72370;BME280;60343;-32.030;115.880;2023-02-15T06:13:15;101062.22;;;31.67;37.46
72370;BME280;60343;-32.030;115.880;2023-02-15T06:15:51;101058.00;;;32.24;36.26
72370;BME280;60343;-32.030;115.880;2023-02-15T06:18:32;101053.75;;;31.44;37.08
72370;BME280;60343;-32.030;115.880;2023-02-15T06:21:10;101060.78;;;31.83;37.03
72370;BME280;60343;-32.030;115.880;2023-02-15T06:23:46;101067.56;;;31.63;36.86
72370;BME280;60343;-32.030;115.880;2023-02-15T06:26:22;101072.59;;;30.59;38.72
72370;BME280;60343;-32.030;115.880;2023-02-15T06:29:20;101061.19;;;29.57;41.55
72370;BME280;60343;-32.030;115.880;2023-02-15T06:32:04;101052.06;;;28.98;43.60
72370;BME280;60343;-32.030;115.880;2023-02-15T06:34:46;101035.94;;;29.16;43.45
72370;BME280;60343;-32.030;115.880;2023-02-15T06:37:21;101041.56;;;30.43;40.77
72370;BME280;60343;-32.030;115.880;2023-02-15T06:39:57;101048.97;;;30.85;39.42
72370;BME280;60343;-32.030;115.880;2023-02-15T06:42:32;101057.75;;;31.38;38.09
72370;BME280;60343;-32.030;115.880;2023-02-15T06:45:09;101049.19;;;31.81;36.70
72370;BME280;60343;-32.030;115.880;2023-02-15T06:47:46;101034.50;;;31.53;37.62
72370;BME280;60343;-32.030;115.880;2023-02-15T06:50:28;101043.03;;;31.57;36.76
72370;BME280;60343;-32.030;115.880;2023-02-15T06:53:03;101039.66;;;31.60;36.05
72370;BME280;60343;-32.030;115.880;2023-02-15T06:55:40;101047.28;;;31.49;36.33
72370;BME280;60343;-32.030;115.880;2023-02-15T06:58:17;101038.41;;;31.66;35.87
72370;BME280;60343;-32.030;115.880;2023-02-15T07:00:54;101036.78;;;31.78;35.39
72370;BME280;60343;-32.030;115.880;2023-02-15T07:03:29;101036.34;;;31.85;33.91
72370;BME280;60343;-32.030;115.880;2023-02-15T07:06:11;101034.63;;;31.75;34.51
72370;BME280;60343;-32.030;115.880;2023-02-15T07:08:48;101028.25;;;31.47;34.65
72370;BME280;60343;-32.030;115.880;2023-02-15T07:11:24;101033.44;;;31.35;35.09
72370;BME280;60343;-32.030;115.880;2023-02-15T07:14:07;101039.59;;;31.32;35.03
72370;BME280;60343;-32.030;115.880;2023-02-15T07:16:43;101033.41;;;31.68;34.10
72370;BME280;60343;-32.030;115.880;2023-02-15T07:19:20;101033.34;;;31.54;34.59
72370;BME280;60343;-32.030;115.880;2023-02-15T07:22:02;101040.06;;;31.67;33.88
72370;BME280;60343;-32.030;115.880;2023-02-15T07:24:38;101047.53;;;31.80;34.05
72370;BME280;60343;-32.030;115.880;2023-02-15T07:27:20;101049.59;;;31.74;34.06
72370;BME280;60343;-32.030;115.880;2023-02-15T07:29:56;101048.56;;;31.57;34.08
72370;BME280;60343;-32.030;115.880;2023-02-15T07:32:33;101049.41;;;31.71;34.24
72370;BME280;60343;-32.030;115.880;2023-02-15T07:35:29;101047.13;;;31.59;34.32
72370;BME280;60343;-32.030;115.880;2023-02-15T07:38:10;101052.25;;;31.66;34.14
72370;BME280;60343;-32.030;115.880;2023-02-15T07:40:47;101064.25;;;31.15;35.20
72370;BME280;60343;-32.030;115.880;2023-02-15T07:43:22;101072.63;;;31.10;35.48
72370;BME280;60343;-32.030;115.880;2023-02-15T07:46:01;101067.63;;;30.18;37.07
72370;BME280;60343;-32.030;115.880;2023-02-15T07:48:38;101076.94;;;30.04;37.56
72370;BME280;60343;-32.030;115.880;2023-02-15T07:51:15;101062.59;;;29.54;38.20
72370;BME280;60343;-32.030;115.880;2023-02-15T07:53:56;101068.09;;;28.96;39.36
72370;BME280;60343;-32.030;115.880;2023-02-15T07:56:32;101074.59;;;28.77;39.62
72370;BME280;60343;-32.030;115.880;2023-02-15T07:59:07;101081.75;;;28.24;40.35
72370;BME280;60343;-32.030;115.880;2023-02-15T08:01:43;101065.97;;;27.80;41.50
72370;BME280;60343;-32.030;115.880;2023-02-15T08:04:21;101069.84;;;27.69;42.22
72370;BME280;60343;-32.030;115.880;2023-02-15T08:06:57;101074.81;;;27.47;42.25
72370;BME280;60343;-32.030;115.880;2023-02-15T08:09:38;101089.91;;;27.74;42.22
72370;BME280;60343;-32.030;115.880;2023-02-15T08:12:15;101088.31;;;27.53;42.78
72370;BME280;60343;-32.030;115.880;2023-02-15T08:14:53;101091.31;;;27.42;42.86
72370;BME280;60343;-32.030;115.880;2023-02-15T08:17:29;101102.88;;;27.44;42.70
72370;BME280;60343;-32.030;115.880;2023-02-15T08:20:05;101103.97;;;27.12;43.08
72370;BME280;60343;-32.030;115.880;2023-02-15T08:22:44;101099.25;;;26.77;43.76
72370;BME280;60343;-32.030;115.880;2023-02-15T08:25:28;101098.94;;;26.48;44.95
72370;BME280;60343;-32.030;115.880;2023-02-15T08:28:06;101095.88;;;26.35;45.28
72370;BME280;60343;-32.030;115.880;2023-02-15T08:30:43;101090.69;;;26.43;45.31
72370;BME280;60343;-32.030;115.880;2023-02-15T08:33:19;101090.97;;;26.47;45.88
72370;BME280;60343;-32.030;115.880;2023-02-15T08:35:54;101100.28;;;26.51;45.44
72370;BME280;60343;-32.030;115.880;2023-02-15T08:38:30;101097.03;;;26.54;45.74
72370;BME280;60343;-32.030;115.880;2023-02-15T08:41:21;101092.84;;;26.36;45.33
72370;BME280;60343;-32.030;115.880;2023-02-15T08:43:58;101101.00;;;26.21;45.71
72370;BME280;60343;-32.030;115.880;2023-02-15T08:46:35;101105.34;;;26.07;45.29
72370;BME280;60343;-32.030;115.880;2023-02-15T08:49:11;101109.78;;;26.18;44.65
72370;BME280;60343;-32.030;115.880;2023-02-15T08:51:48;101102.91;;;26.16;44.37
72370;BME280;60343;-32.030;115.880;2023-02-15T08:54:23;101092.69;;;26.01;44.99
72370;BME280;60343;-32.030;115.880;2023-02-15T08:57:06;101085.84;;;26.03;45.10
72370;BME280;60343;-32.030;115.880;2023-02-15T08:59:42;101087.22;;;26.06;44.98
72370;BME280;60343;-32.030;115.880;2023-02-15T09:02:18;101087.16;;;25.91;45.42
72370;BME280;60343;-32.030;115.880;2023-02-15T09:04:56;101088.75;;;25.82;45.50
72370;BME280;60343;-32.030;115.880;2023-02-15T09:07:32;101098.47;;;25.99;45.09
72370;BME280;60343;-32.030;115.880;2023-02-15T09:10:08;101097.63;;;25.99;46.04
72370;BME280;60343;-32.030;115.880;2023-02-15T09:12:49;101093.72;;;25.85;46.40
72370;BME280;60343;-32.030;115.880;2023-02-15T09:15:25;101098.41;;;25.89;45.92
72370;BME280;60343;-32.030;115.880;2023-02-15T09:18:00;101097.28;;;25.80;46.25
72370;BME280;60343;-32.030;115.880;2023-02-15T09:20:37;101104.09;;;25.78;45.94
72370;BME280;60343;-32.030;115.880;2023-02-15T09:23:13;101102.19;;;25.78;46.15
72370;BME280;60343;-32.030;115.880;2023-02-15T09:25:50;101104.38;;;25.81;46.15
72370;BME280;60343;-32.030;115.880;2023-02-15T09:28:32;101105.41;;;25.65;46.75
72370;BME280;60343;-32.030;115.880;2023-02-15T09:31:10;101108.41;;;25.63;46.61
72370;BME280;60343;-32.030;115.880;2023-02-15T09:33:53;101108.66;;;25.62;46.85
72370;BME280;60343;-32.030;115.880;2023-02-15T09:36:30;101120.00;;;25.39;47.65
72370;BME280;60343;-32.030;115.880;2023-02-15T09:39:09;101119.72;;;25.40;47.51
72370;BME280;60343;-32.030;115.880;2023-02-15T09:45:17;101135.66;;;25.11;49.32
72370;BME280;60343;-32.030;115.880;2023-02-15T09:48:13;101133.53;;;25.18;49.52
72370;BME280;60343;-32.030;115.880;2023-02-15T09:51:03;101139.22;;;25.12;49.19
72370;BME280;60343;-32.030;115.880;2023-02-15T09:53:56;101137.56;;;25.11;49.25
72370;BME280;60343;-32.030;115.880;2023-02-15T09:56:42;101138.59;;;25.05;49.45
72370;BME280;60343;-32.030;115.880;2023-02-15T09:59:28;101140.84;;;24.86;50.36
72370;BME280;60343;-32.030;115.880;2023-02-15T10:02:27;101136.41;;;24.80;49.99
72370;BME280;60343;-32.030;115.880;2023-02-15T10:05:21;101140.59;;;24.61;50.56
72370;BME280;60343;-32.030;115.880;2023-02-15T10:08:17;101147.84;;;24.50;50.88
72370;BME280;60343;-32.030;115.880;2023-02-15T10:11:06;101150.03;;;24.48;50.62
72370;BME280;60343;-32.030;115.880;2023-02-15T10:14:01;101156.16;;;24.33;50.56
72370;BME280;60343;-32.030;115.880;2023-02-15T10:16:45;101161.59;;;24.12;51.85
72370;BME280;60343;-32.030;115.880;2023-02-15T10:19:30;101163.81;;;24.15;50.97
72370;BME280;60343;-32.030;115.880;2023-02-15T10:22:19;101167.50;;;24.04;51.36
72370;BME280;60343;-32.030;115.880;2023-02-15T10:25:08;101173.84;;;23.87;52.11
72370;BME280;60343;-32.030;115.880;2023-02-15T10:27:50;101189.19;;;23.72;52.48
72370;BME280;60343;-32.030;115.880;2023-02-15T10:30:31;101189.84;;;23.62;52.01
72370;BME280;60343;-32.030;115.880;2023-02-15T10:33:16;101196.22;;;23.51;52.18
72370;BME280;60343;-32.030;115.880;2023-02-15T10:36:15;101193.53;;;23.39;53.10
72370;BME280;60343;-32.030;115.880;2023-02-15T10:39:00;101197.94;;;23.24;53.29
72370;BME280;60343;-32.030;115.880;2023-02-15T10:41:47;101209.56;;;23.19;53.85
72370;BME280;60343;-32.030;115.880;2023-02-15T10:44:37;101208.50;;;23.20;53.83
72370;BME280;60343;-32.030;115.880;2023-02-15T10:47:30;101222.97;;;23.21;53.25
72370;BME280;60343;-32.030;115.880;2023-02-15T10:50:20;101220.06;;;23.10;53.96
72370;BME280;60343;-32.030;115.880;2023-02-15T10:53:13;101222.19;;;22.92;54.55
72370;BME280;60343;-32.030;115.880;2023-02-15T10:55:58;101219.00;;;22.83;54.69
72370;BME280;60343;-32.030;115.880;2023-02-15T10:58:47;101235.88;;;22.80;54.49
72370;BME280;60343;-32.030;115.880;2023-02-15T11:01:27;101229.50;;;22.63;55.53
72370;BME280;60343;-32.030;115.880;2023-02-15T11:04:23;101231.50;;;22.56;55.33
72370;BME280;60343;-32.030;115.880;2023-02-15T11:07:08;101229.06;;;22.43;55.56
72370;BME280;60343;-32.030;115.880;2023-02-15T11:09:53;101237.25;;;22.43;55.40
72370;BME280;60343;-32.030;115.880;2023-02-15T11:12:33;101238.78;;;22.39;55.65
72370;BME280;60343;-32.030;115.880;2023-02-15T11:15:16;101235.25;;;22.15;56.29
72370;BME280;60343;-32.030;115.880;2023-02-15T11:18:01;101244.53;;;22.02;57.10
72370;BME280;60343;-32.030;115.880;2023-02-15T11:20:47;101253.03;;;22.06;57.18
72370;BME280;60343;-32.030;115.880;2023-02-15T11:23:33;101260.75;;;22.09;57.06
72370;BME280;60343;-32.030;115.880;2023-02-15T11:26:22;101266.06;;;22.04;56.66
72370;BME280;60343;-32.030;115.880;2023-02-15T11:29:05;101263.47;;;21.97;56.83
72370;BME280;60343;-32.030;115.880;2023-02-15T11:31:50;101263.56;;;21.91;57.22
72370;BME280;60343;-32.030;115.880;2023-02-15T11:34:29;101273.84;;;21.77;57.80
72370;BME280;60343;-32.030;115.880;2023-02-15T11:37:11;101280.50;;;21.81;57.73
72370;BME280;60343;-32.030;115.880;2023-02-15T11:39:48;101278.09;;;21.73;58.20
72370;BME280;60343;-32.030;115.880;2023-02-15T11:42:36;101278.09;;;21.73;57.68
72370;BME280;60343;-32.030;115.880;2023-02-15T11:45:21;101284.84;;;21.70;58.05
72370;BME280;60343;-32.030;115.880;2023-02-15T11:47:57;101298.72;;;21.69;57.88
72370;BME280;60343;-32.030;115.880;2023-02-15T11:50:34;101297.72;;;21.52;58.17
72370;BME280;60343;-32.030;115.880;2023-02-15T11:53:21;101298.78;;;21.51;58.25
72370;BME280;60343;-32.030;115.880;2023-02-15T11:55:58;101296.81;;;21.58;57.84
72370;BME280;60343;-32.030;115.880;2023-02-15T11:58:48;101305.66;;;21.53;58.16
72370;BME280;60343;-32.030;115.880;2023-02-15T12:01:31;101303.75;;;21.54;58.07
72370;BME280;60343;-32.030;115.880;2023-02-15T12:04:16;101312.13;;;21.40;58.91
72370;BME280;60343;-32.030;115.880;2023-02-15T12:06:57;101316.53;;;21.42;58.75
72370;BME280;60343;-32.030;115.880;2023-02-15T12:09:44;101320.03;;;21.30;59.36
72370;BME280;60343;-32.030;115.880;2023-02-15T12:12:23;101321.03;;;21.18;59.76
72370;BME280;60343;-32.030;115.880;2023-02-15T12:15:07;101330.94;;;21.12;59.95
72370;BME280;60343;-32.030;115.880;2023-02-15T12:17:51;101334.16;;;21.03;60.51
72370;BME280;60343;-32.030;115.880;2023-02-15T12:20:32;101341.38;;;20.97;60.89
72370;BME280;60343;-32.030;115.880;2023-02-15T12:23:14;101337.50;;;21.05;60.42
72370;BME280;60343;-32.030;115.880;2023-02-15T12:25:53;101338.41;;;20.98;60.87
72370;BME280;60343;-32.030;115.880;2023-02-15T12:28:33;101335.41;;;20.88;60.89
72370;BME280;60343;-32.030;115.880;2023-02-15T12:31:23;101344.47;;;21.01;60.24
72370;BME280;60343;-32.030;115.880;2023-02-15T12:34:12;101345.38;;;20.94;60.30
72370;BME280;60343;-32.030;115.880;2023-02-15T12:36:50;101348.41;;;21.05;59.69
72370;BME280;60343;-32.030;115.880;2023-02-15T12:39:30;101352.50;;;20.95;60.10
72370;BME280;60343;-32.030;115.880;2023-02-15T12:42:16;101354.06;;;20.85;60.21
72370;BME280;60343;-32.030;115.880;2023-02-15T12:44:57;101351.66;;;20.77;60.70
72370;BME280;60343;-32.030;115.880;2023-02-15T12:47:40;101348.69;;;20.78;60.34
72370;BME280;60343;-32.030;115.880;2023-02-15T12:50:23;101350.75;;;20.65;60.72
72370;BME280;60343;-32.030;115.880;2023-02-15T12:53:13;101360.84;;;20.58;61.48
72370;BME280;60343;-32.030;115.880;2023-02-15T12:55:55;101357.31;;;20.57;61.03
72370;BME280;60343;-32.030;115.880;2023-02-15T12:58:31;101364.66;;;20.57;61.21
72370;BME280;60343;-32.030;115.880;2023-02-15T13:01:15;101358.91;;;20.65;61.11
72370;BME280;60343;-32.030;115.880;2023-02-15T13:04:04;101369.53;;;20.48;61.65
72370;BME280;60343;-32.030;115.880;2023-02-15T13:06:48;101368.53;;;20.42;61.86
72370;BME280;60343;-32.030;115.880;2023-02-15T13:09:34;101367.22;;;20.51;61.45
72370;BME280;60343;-32.030;115.880;2023-02-15T13:12:21;101368.38;;;20.37;62.00
72370;BME280;60343;-32.030;115.880;2023-02-15T13:15:02;101367.22;;;20.51;61.52
72370;BME280;60343;-32.030;115.880;2023-02-15T13:17:38;101372.59;;;20.33;61.91
72370;BME280;60343;-32.030;115.880;2023-02-15T13:20:27;101378.28;;;20.25;62.47
72370;BME280;60343;-32.030;115.880;2023-02-15T13:23:05;101378.13;;;20.20;62.62
72370;BME280;60343;-32.030;115.880;2023-02-15T13:25:46;101382.50;;;20.21;62.61
72370;BME280;60343;-32.030;115.880;2023-02-15T13:28:25;101376.28;;;20.14;62.58
72370;BME280;60343;-32.030;115.880;2023-02-15T13:31:03;101378.50;;;20.24;62.50
72370;BME280;60343;-32.030;115.880;2023-02-15T13:33:46;101382.44;;;20.28;62.35
72370;BME280;60343;-32.030;115.880;2023-02-15T13:36:37;101397.41;;;20.12;62.61